Time;durP1;ratioP1;P1;durP2;ratioP2;P2;SDS_P1;SDS_P2;PMS_P1;PMS_P2;Temp;Humidity;BMP_temperature;BMP_pressure;BME280_temperature;BME280_humidity;BME280_pressure;Samples;Min_cycle;Max_cycle;Signal;HPM_P1;HPM_P2
2024/04/17 00:01:05;;;;;;;;;;;;;;;;;;6385721;22;6968;-87
2024/04/17 00:03:31;;;;;;;;;;;;;;;;;;6426884;22;7002;-86
2024/04/17 00:06:04;;;;;;;;;;;;;;;;;;6385062;22;6986;-86
2024/04/17 00:08:30;;;;;;;;;;;;;;;;;;6426938;22;7076;-86
2024/04/17 00:11:05;;;;;;;;;;;;;;;;;;6426271;22;6982;-86
2024/04/17 00:13:36;;;;;;;;;;;;;;;;;;6385139;22;6952;-86
2024/04/17 00:16:02;;;;;;;;;;;;;;;;;;6426011;22;7142;-86
2024/04/17 00:18:28;;;;;;;;;;;;;;;;;;6468529;22;7025;-86
2024/04/17 00:20:54;;;;;;;;;;;;;;;;;;6426141;22;6960;-86
2024/04/17 00:23:23;;;;;;;;;;;;;;;;;;6426479;22;6957;-86
2024/04/17 00:25:51;;;;;;;;;;;;;;;;;;6468303;22;8119;-86
2024/04/17 00:28:17;;;;;;;;;;;;;;;;;;6426408;22;7096;-86
2024/04/17 00:30:55;;;;;;;;;;;;;;;;;;6426758;22;7170;-86
2024/04/17 00:33:25;;;;;;;;;;;;;;;;;;6426557;22;6940;-86
2024/04/17 00:35:51;;;;;;;;;;;;;;;;;;6426622;22;7072;-86
2024/04/17 00:38:19;;;;;;;;;;;;;;;;;;6426650;22;7002;-85
2024/04/17 00:40:45;;;;;;;;;;;;;;;;;;6426055;22;6983;-87
2024/04/17 00:43:11;;;;;;;;;;;;;;;;;;6426336;22;6960;-86
2024/04/17 00:45:49;;;;;;;;;;;;;;;;;;6426704;22;7102;-86
2024/04/17 00:48:18;;;;;;;;;;;;;;;;;;6426684;22;7260;-87
2024/04/17 00:50:51;;;;;;;;;;;;;;;;;;6427358;22;6965;-85
2024/04/17 00:53:24;;;;;;;;;;;;;;;;;;6426805;22;6936;-85
2024/04/17 00:55:57;;;;;;;;;;;;;;;;;;6468225;22;7103;-86
2024/04/17 00:58:26;;;;;;;;;;;;;;;;;;6426946;22;8048;-87
2024/04/17 01:00:52;;;;;;;;;;;;;;;;;;6426086;22;7197;-87
2024/04/17 01:03:18;;;;;;;;;;;;;;;;;;6426254;22;7070;-86
2024/04/17 01:05:44;;;;;;;;;;;;;;;;;;6426357;22;7138;-86
2024/04/17 01:08:10;;;;;;;;;;;;;;;;;;6426012;22;7083;-87
2024/04/17 01:10:36;;;;;;;;;;;;;;;;;;6426173;22;6972;-87
2024/04/17 01:13:02;;;;;;;;;;;;;;;;;;6425910;22;7030;-85
2024/04/17 01:15:30;;;;;;;;;;;;;;;;;;6467494;22;7936;-86
2024/04/17 01:17:58;;;;;;;;;;;;;;;;;;6384631;22;7083;-87
2024/04/17 01:20:24;;;;;;;;;;;;;;;;;;6426156;22;7211;-87
2024/04/17 01:22:50;;;;;;;;;;;;;;;;;;6384463;22;6957;-87
2024/04/17 01:25:19;;;;;;;;;;;;;;;;;;6426356;22;7153;-86
2024/04/17 01:27:45;;;;;;;;;;;;;;;;;;6384629;22;7090;-87
2024/04/17 01:30:14;;;;;;;;;;;;;;;;;;6384333;22;7173;-87
2024/04/17 01:32:42;;;;;;;;;;;;;;;;;;6426111;22;7094;-87
2024/04/17 01:35:10;;;;;;;;;;;;;;;;;;6426840;22;6979;-87
2024/04/17 01:37:36;;;;;;;;;;;;;;;;;;6426120;22;7106;-87
2024/04/17 01:40:02;;;;;;;;;;;;;;;;;;6384661;22;7102;-87
2024/04/17 01:42:27;;;;;;;;;;;;;;;;;;6384142;22;7228;-87
2024/04/17 01:44:53;;;;;;;;;;;;;;;;;;6384963;22;6976;-87
2024/04/17 01:47:21;;;;;;;;;;;;;;;;;;6384024;22;7128;-87
2024/04/17 01:49:47;;;;;;;;;;;;;;;;;;6426076;22;6965;-87
2024/04/17 01:52:13;;;;;;;;;;;;;;;;;;6384089;22;7401;-87
2024/04/17 01:54:39;;;;;;;;;;;;;;;;;;6384824;22;7261;-87
2024/04/17 01:57:05;;;;;;;;;;;;;;;;;;6426737;22;7101;-87
2024/04/17 01:59:34;;;;;;;;;;;;;;;;;;6386343;22;7014;-87
2024/04/17 02:02:00;;;;;;;;;;;;;;;;;;6386370;22;7085;-87
2024/04/17 02:04:25;;;;;;;;;;;;;;;;;;6386875;22;7015;-87
2024/04/17 02:06:53;;;;;;;;;;;;;;;;;;6427845;22;6970;-87
2024/04/17 02:09:19;;;;;;;;;;;;;;;;;;6427702;22;7008;-87
2024/04/17 02:11:45;;;;;;;;;;;;;;;;;;6386639;22;7235;-86
2024/04/17 02:14:19;;;;;;;;;;;;;;;;;;6427578;22;7940;-86
2024/04/17 02:16:49;;;;;;;;;;;;;;;;;;6417338;22;7075;-87
2024/04/17 02:19:17;;;;;;;;;;;;;;;;;;6424279;22;7288;-87
2024/04/17 02:21:43;;;;;;;;;;;;;;;;;;6428059;22;6969;-87
2024/04/17 02:24:09;;;;;;;;;;;;;;;;;;6386037;22;7008;-87
2024/04/17 02:26:35;;;;;;;;;;;;;;;;;;6427959;22;7256;-87
2024/04/17 02:29:01;;;;;;;;;;;;;;;;;;6427812;22;6970;-87
2024/04/17 02:31:27;;;;;;;;;;;;;;;;;;6428042;22;7130;-87
2024/04/17 02:33:53;;;;;;;;;;;;;;;;;;6427646;22;7114;-87
2024/04/17 02:36:18;;;;;;;;;;;;;;;;;;6426889;22;7106;-87
2024/04/17 02:38:49;;;;;;;;;;;;;;;;;;6387036;22;7178;-86
2024/04/17 02:41:15;;;;;;;;;;;;;;;;;;6386272;22;7079;-87
2024/04/17 02:43:40;;;;;;;;;;;;;;;;;;6427695;22;6960;-85
2024/04/17 02:46:06;;;;;;;;;;;;;;;;;;6386390;22;6976;-86
2024/04/17 02:48:32;;;;;;;;;;;;;;;;;;6385740;22;6987;-86
2024/04/17 02:50:58;;;;;;;;;;;;;;;;;;6386353;22;7120;-86
2024/04/17 02:53:23;;;;;;;;;;;;;;;;;;6386194;22;7076;-86
2024/04/17 02:55:49;;;;;;;;;;;;;;;;;;6385842;22;6997;-86
2024/04/17 02:58:15;;;;;;;;;;;;;;;;;;6469836;22;7232;-87
2024/04/17 03:00:40;;;;;;;;;;;;;;;;;;6386153;22;7116;-86
2024/04/17 03:03:06;;;;;;;;;;;;;;;;;;6427449;22;6940;-86
2024/04/17 03:05:35;;;;;;;;;;;;;;;;;;6427316;22;7082;-86
2024/04/17 03:08:02;;;;;;;;;;;;;;;;;;6385595;22;7102;-86
2024/04/17 03:10:28;;;;;;;;;;;;;;;;;;6469165;22;7002;-86
2024/04/17 03:12:55;;;;;;;;;;;;;;;;;;6427180;22;7098;-86
2024/04/17 03:15:21;;;;;;;;;;;;;;;;;;6403480;22;7102;-86
2024/04/17 03:17:47;;;;;;;;;;;;;;;;;;6520594;22;7101;-86
2024/04/17 03:20:12;;;;;;;;;;;;;;;;;;6520618;22;7105;-86
2024/04/17 03:22:38;;;;;;;;;;;;;;;;;;6520764;22;7090;-86
2024/04/17 03:25:04;;;;;;;;;;;;;;;;;;6520415;22;7375;-85
2024/04/17 03:27:32;;;;;;;;;;;;;;;;;;6478147;22;7076;-86
2024/04/17 03:29:58;;;;;;;;;;;;;;;;;;6477425;22;7114;-86
2024/04/17 03:32:23;;;;;;;;;;;;;;;;;;6520779;22;7018;-86
2024/04/17 03:34:49;;;;;;;;;;;;;;;;;;6520329;22;8117;-86
2024/04/17 03:37:15;;;;;;;;;;;;;;;;;;6477504;22;7130;-86
2024/04/17 03:39:41;;;;;;;;;;;;;;;;;;6477454;22;7081;-86
2024/04/17 03:42:07;;;;;;;;;;;;;;;;;;6477155;22;7235;-86
2024/04/17 03:44:35;;;;;;;;;;;;;;;;;;6520411;22;7134;-86
2024/04/17 03:47:03;;;;;;;;;;;;;;;;;;6477807;22;7140;-85
2024/04/17 03:49:29;;;;;;;;;;;;;;;;;;6520071;22;7069;-86
2024/04/17 03:51:55;;;;;;;;;;;;;;;;;;6520457;22;6970;-86
2024/04/17 03:54:20;;;;;;;;;;;;;;;;;;6520413;22;7224;-86
2024/04/17 03:56:46;;;;;;;;;;;;;;;;;;6520245;22;7371;-86
2024/04/17 03:59:12;;;;;;;;;;;;;;;;;;6520025;22;7034;-86
2024/04/17 04:01:37;;;;;;;;;;;;;;;;;;6477292;22;6970;-86
2024/04/17 04:04:03;;;;;;;;;;;;;;;;;;6520002;22;7015;-86
2024/04/17 04:06:30;;;;;;;;;;;;;;;;;;6477611;22;6958;-85
2024/04/17 04:08:58;;;;;;;;;;;;;;;;;;6477447;22;7323;-86
2024/04/17 04:11:31;;;;;;;;;;;;;;;;;;6519960;22;7093;-86
2024/04/17 04:13:59;;;;;;;;;;;;;;;;;;6520283;22;7022;-86
2024/04/17 04:16:26;;;;;;;;;;;;;;;;;;6468545;22;7162;-86
2024/04/17 04:18:51;;;;;;;;;;;;;;;;;;6426766;22;6974;-86
2024/04/17 04:21:17;;;;;;;;;;;;;;;;;;6426288;22;7003;-86
2024/04/17 04:23:47;;;;;;;;;;;;;;;;;;6426810;22;7104;-86
2024/04/17 04:26:13;;;;;;;;;;;;;;;;;;6427063;22;7064;-86
2024/04/17 04:28:39;;;;;;;;;;;;;;;;;;6385240;22;7094;-86
2024/04/17 04:31:05;;;;;;;;;;;;;;;;;;6384921;22;6980;-86
2024/04/17 04:33:31;;;;;;;;;;;;;;;;;;6426623;22;7080;-86
2024/04/17 04:35:56;;;;;;;;;;;;;;;;;;6426876;22;7128;-86
2024/04/17 04:38:23;;;;;;;;;;;;;;;;;;6426773;22;7004;-86
2024/04/17 04:40:55;;;;;;;;;;;;;;;;;;6426256;22;6994;-86
2024/04/17 04:43:25;;;;;;;;;;;;;;;;;;6427170;22;7075;-86
2024/04/17 04:45:51;;;;;;;;;;;;;;;;;;6385111;22;7515;-85
2024/04/17 04:48:17;;;;;;;;;;;;;;;;;;6426459;22;6976;-86
2024/04/17 04:50:43;;;;;;;;;;;;;;;;;;6426210;22;7200;-86
2024/04/17 04:53:09;;;;;;;;;;;;;;;;;;6426338;22;7245;-86
2024/04/17 04:55:37;;;;;;;;;;;;;;;;;;6426257;22;7078;-86
2024/04/17 04:58:03;;;;;;;;;;;;;;;;;;6426602;22;7114;-85
2024/04/17 05:00:29;;;;;;;;;;;;;;;;;;6384466;22;8186;-86
2024/04/17 05:02:57;;;;;;;;;;;;;;;;;;6427428;22;7142;-85
2024/04/17 05:05:26;;;;;;;;;;;;;;;;;;6427152;22;7087;-85
2024/04/17 05:07:54;;;;;;;;;;;;;;;;;;6470355;22;8003;-85
2024/04/17 05:10:22;;;;;;;;;;;;;;;;;;6426678;22;6955;-85
2024/04/17 05:12:57;;;;;;;;;;;;;;;;;;6429199;22;6986;-86
2024/04/17 05:15:23;;;;;;;;;;;;;;;;;;6425608;22;7100;-86
2024/04/17 05:17:49;;;;;;;;;;;;;;;;;;6426103;22;7117;-86
2024/04/17 05:20:14;;;;;;;;;;;;;;;;;;6468002;22;7140;-86
2024/04/17 05:22:40;;;;;;;;;;;;;;;;;;6453221;22;7083;-86
2024/04/17 05:25:09;;;;;;;;;;;;;;;;;;6425884;22;7079;-86
2024/04/17 05:27:35;;;;;;;;;;;;;;;;;;6426145;22;7006;-86
2024/04/17 05:30:01;;;;;;;;;;;;;;;;;;6425821;22;7342;-86
2024/04/17 05:32:28;;;;;;;;;;;;;;;;;;6426112;22;7102;-86
2024/04/17 05:34:54;;;;;;;;;;;;;;;;;;6457792;22;6954;-86
2024/04/17 05:37:20;;;;;;;;;;;;;;;;;;6426156;22;6975;-86
2024/04/17 05:39:54;;;;;;;;;;;;;;;;;;6425933;22;7487;-85
2024/04/17 05:42:24;;;;;;;;;;;;;;;;;;6468062;22;6984;-85
2024/04/17 05:45:06;;;;;;;;;;;;;;;;;;;;;
2024/04/17 05:47:42;;;;;;;;;;;;;;;;;;6467935;22;6986;-86
2024/04/17 05:50:15;;;;;;;;;;;;;;;;;;6420349;22;7030;-86
2024/04/17 05:52:45;;;;;;;;;;;;;;;;;;6425674;22;7080;-86
2024/04/17 05:55:46;;;;;;;;;;;;;;;;;;6466012;22;7003;-85
2024/04/17 05:58:47;;;;;;;;;;;;;;;;;;6434812;22;6995;-85
2024/04/17 06:01:28;;;;;;;;;;;;;;;;;;6384402;22;7934;-85
2024/04/17 06:04:21;;;;;;;;;;;;;;;;;;6468330;22;7112;-85
2024/04/17 06:06:49;;;;;;;;;;;;;;;;;;6466157;22;6979;-85
2024/04/17 06:09:17;;;;;;;;;;;;;;;;;;6425723;22;8052;-86
2024/04/17 06:11:49;;;;;;;;;;;;;;;;;;6425050;22;6966;-84
2024/04/17 06:14:20;;;;;;;;;;;;;;;;;;6426313;22;6946;-85
2024/04/17 06:16:46;;;;;;;;;;;;;;;;;;6464623;22;7295;-84
2024/04/17 06:19:13;;;;;;;;;;;;;;;;;;6383314;22;7075;-84
2024/04/17 06:21:40;;;;;;;;;;;;;;;;;;6384414;22;7155;-84
2024/04/17 06:24:06;;;;;;;;;;;;;;;;;;6467750;22;7126;-84
2024/04/17 06:26:32;;;;;;;;;;;;;;;;;;6467998;22;6964;-84
2024/04/17 06:28:57;;;;;;;;;;;;;;;;;;6468131;22;6989;-84
2024/04/17 06:31:25;;;;;;;;;;;;;;;;;;6467735;22;6953;-85
2024/04/17 06:33:51;;;;;;;;;;;;;;;;;;6468116;22;7179;-83
2024/04/17 06:36:17;;;;;;;;;;;;;;;;;;6467875;22;7203;-85
2024/04/17 06:38:44;;;;;;;;;;;;;;;;;;6425633;22;7104;-85
2024/04/17 06:41:10;;;;;;;;;;;;;;;;;;6425849;22;7030;-85
2024/04/17 06:43:39;;;;;;;;;;;;;;;;;;6465700;22;7463;-85
2024/04/17 06:46:07;;;;;;;;;;;;;;;;;;6467275;22;7127;-85
2024/04/17 06:48:33;;;;;;;;;;;;;;;;;;6467073;22;8045;-85
2024/04/17 06:50:59;;;;;;;;;;;;;;;;;;6467890;22;7075;-85
2024/04/17 06:53:24;;;;;;;;;;;;;;;;;;6467390;22;7210;-85
2024/04/17 06:55:53;;;;;;;;;;;;;;;;;;6425482;22;6983;-85
2024/04/17 06:58:19;;;;;;;;;;;;;;;;;;6425805;22;7119;-85
2024/04/17 07:00:45;;;;;;;;;;;;;;;;;;6425216;22;7107;-85
2024/04/17 07:03:11;;;;;;;;;;;;;;;;;;6467881;22;7298;-85
2024/04/17 07:05:39;;;;;;;;;;;;;;;;;;6467559;22;7114;-85
2024/04/17 07:08:05;;;;;;;;;;;;;;;;;;6467381;22;7246;-85
2024/04/17 07:10:31;;;;;;;;;;;;;;;;;;6467578;22;7115;-85
2024/04/17 07:13:10;;;;;;;;;;;;;;;;;;6467903;22;7150;-85
2024/04/17 07:15:36;;;;;;;;;;;;;;;;;;6466977;22;7079;-85
2024/04/17 07:18:05;;;;;;;;;;;;;;;;;;6425082;22;7053;-85
2024/04/17 07:20:31;;;;;;;;;;;;;;;;;;6467329;22;6945;-85
2024/04/17 07:22:57;;;;;;;;;;;;;;;;;;6467288;22;7085;-85
2024/04/17 07:25:22;;;;;;;;;;;;;;;;;;6467860;22;7066;-86
2024/04/17 07:27:48;;;;;;;;;;;;;;;;;;6467358;22;6938;-85
2024/04/17 07:30:14;;;;;;;;;;;;;;;;;;6467356;22;8127;-85
2024/04/17 07:32:40;;;;;;;;;;;;;;;;;;6467260;22;7056;-86
2024/04/17 07:35:06;;;;;;;;;;;;;;;;;;6467170;22;7350;-85
2024/04/17 07:37:32;;;;;;;;;;;;;;;;;;6466838;22;6982;-86
2024/04/17 07:39:57;;;;;;;;;;;;;;;;;;6465357;22;7150;-86
2024/04/17 07:42:23;;;;;;;;;;;;;;;;;;6466823;22;6940;-86
2024/04/17 07:44:49;;;;;;;;;;;;;;;;;;6466708;22;7336;-86
2024/04/17 07:47:15;;;;;;;;;;;;;;;;;;6466816;22;7235;-86
2024/04/17 07:49:43;;;;;;;;;;;;;;;;;;6467273;22;7214;-85
2024/04/17 07:52:11;;;;;;;;;;;;;;;;;;6466291;22;7329;-86
2024/04/17 07:54:36;;;;;;;;;;;;;;;;;;6467236;22;7111;-86
2024/04/17 07:57:02;;;;;;;;;;;;;;;;;;6467367;22;7058;-86
2024/04/17 07:59:28;;;;;;;;;;;;;;;;;;6469202;22;7090;-93
2024/04/17 08:01:54;;;;;;;;;;;;;;;;;;6468465;22;7105;-89
2024/04/17 08:04:22;;;;;;;;;;;;;;;;;;6468893;22;7193;-93
2024/04/17 08:06:48;;;;;;;;;;;;;;;;;;6468723;22;7151;-91
2024/04/17 08:09:21;;;;;;;;;;;;;;;;;;6468935;22;7141;-93
2024/04/17 08:11:54;;;;;;;;;;;;;;;;;;6469067;22;7113;-93
2024/04/17 08:17:52;;;;;;;;;;;;;;;;;;6426483;22;6996;-92
2024/04/17 08:20:18;;;;;;;;;;;;;;;;;;6427066;22;7086;-92
2024/04/17 08:22:46;;;;;;;;;;;;;;;;;;6426706;22;7319;-91
2024/04/17 08:25:14;;;;;;;;;;;;;;;;;;6427854;22;7120;-93
2024/04/17 08:27:40;;;;;;;;;;;;;;;;;;6426171;22;7105;-92
2024/04/17 08:30:09;;;;;;;;;;;;;;;;;;6468690;22;7098;-90
2024/04/17 08:32:42;;;;;;;;;;;;;;;;;;6427907;22;7122;-92
2024/04/17 08:35:10;;;;;;;;;;;;;;;;;;6427644;22;6988;-92
2024/04/17 08:37:36;;;;;;;;;;;;;;;;;;6429792;22;7104;-92
2024/04/17 08:40:16;;;;;;;;;;;;;;;;;;;;;
2024/04/17 08:42:51;;;;;;;;;;;;;;;;;;6425709;22;7326;-90
2024/04/17 08:45:30;;;;;;;;;;;;;;;;;;6468687;22;6980;-92
2024/04/17 08:48:02;;;;;;;;;;;;;;;;;;6426654;22;7109;-93
2024/04/17 08:50:30;;;;;;;;;;;;;;;;;;6468226;22;7262;-92
2024/04/17 08:53:03;;;;;;;;;;;;;;;;;;6427104;22;6990;-92
2024/04/17 08:55:30;;;;;;;;;;;;;;;;;;6384645;22;7108;-92
2024/04/17 08:58:04;;;;;;;;;;;;;;;;;;6387361;22;6972;-91
2024/04/17 09:00:35;;;;;;;;;;;;;;;;;;6426209;22;6944;-93
2024/04/17 09:03:30;;;;;;;;;;;;;;;;;;;;;
2024/04/17 09:06:09;;;;;;;;;;;;;;;;;;6426018;22;6975;-93
2024/04/17 09:08:36;;;;;;;;;;;;;;;;;;6426473;22;7176;-93
2024/04/17 09:11:10;;;;;;;;;;;;;;;;;;6428769;22;6994;-94
2024/04/17 09:13:41;;;;;;;;;;;;;;;;;;6425872;22;6976;-92
2024/04/17 09:16:09;;;;;;;;;;;;;;;;;;6473037;22;7228;-92
2024/04/17 09:18:37;;;;;;;;;;;;;;;;;;6382686;22;6977;-93
2024/04/17 09:21:12;;;;;;;;;;;;;;;;;;6385715;22;6991;-92
2024/04/17 09:23:41;;;;;;;;;;;;;;;;;;6381722;22;6975;-93
2024/04/17 09:26:27;;;;;;;;;;;;;;;;;;;;;
2024/04/17 09:29:15;;;;;;;;;;;;;;;;;;6426696;22;7366;-93
2024/04/17 09:31:44;;;;;;;;;;;;;;;;;;6427673;22;7097;-92
2024/04/17 09:34:15;;;;;;;;;;;;;;;;;;6425786;22;7202;-93
2024/04/17 09:36:48;;;;;;;;;;;;;;;;;;6426872;22;7219;-88
2024/04/17 09:39:37;;;;;;;;;;;;;;;;;;6426748;22;6956;-91
2024/04/17 09:42:30;;;;;;;;;;;;;;;;;;6384961;22;7000;-91
2024/04/17 09:48:53;;;;;;;;;;;;;;;;;;;;;
2024/04/17 09:51:55;;;;;;;;;;;;;;;;;;6316242;22;7120;-89
2024/04/17 09:55:03;;;;;;;;;;;;;;;;;;6427024;22;7100;-92
2024/04/17 09:57:33;;;;;;;;;;;;;;;;;;6231806;22;7133;-91
2024/04/17 10:00:08;;;;;;;;;;;;;;;;;;6410450;22;6986;-89
2024/04/17 10:03:06;;;;;;;;;;;;;;;;;;;;;
2024/04/17 10:05:36;;;;;;;;;;;;;;;;;;6427480;22;7095;-89
2024/04/17 10:15:54;;;;;;;;;;;;;;;;;;6391314;22;7160;-94
2024/04/17 10:18:43;;;;;;;;;;;;;;;;;;6387709;22;7012;-93
2024/04/17 10:21:53;;;;;;;;;;;;;;;;;;6471923;22;6985;-93
2024/04/17 10:24:57;;;;;;;;;;;;;;;;;;6411373;22;7256;-92
2024/04/17 10:27:36;;;;;;;;;;;;;;;;;;6433080;22;6955;-91
2024/04/17 10:30:10;;;;;;;;;;;;;;;;;;6435503;22;6970;-93
2024/04/17 10:32:41;;;;;;;;;;;;;;;;;;6427777;22;6983;-92
2024/04/17 10:35:17;;;;;;;;;;;;;;;;;;6425085;22;7206;-91
2024/04/17 10:37:47;;;;;;;;;;;;;;;;;;6391397;22;6989;-92
2024/04/17 10:40:13;;;;;;;;;;;;;;;;;;6388975;22;7187;-90
2024/04/17 10:42:39;;;;;;;;;;;;;;;;;;6429881;22;7338;-90
2024/04/17 10:45:05;;;;;;;;;;;;;;;;;;6429754;22;6996;-92
2024/04/17 10:47:33;;;;;;;;;;;;;;;;;;6388096;22;6980;-91
2024/04/17 10:50:01;;;;;;;;;;;;;;;;;;6429515;22;7292;-89
2024/04/17 10:52:36;;;;;;;;;;;;;;;;;;6386198;22;8335;-87
2024/04/17 10:55:10;;;;;;;;;;;;;;;;;;6423930;22;7328;-90
2024/04/17 10:57:36;;;;;;;;;;;;;;;;;;6381319;22;7080;-89
2024/04/17 11:00:03;;;;;;;;;;;;;;;;;;6421368;22;7082;-92
2024/04/17 11:02:31;;;;;;;;;;;;;;;;;;6422094;22;7234;-90
2024/04/17 11:04:57;;;;;;;;;;;;;;;;;;6381199;22;7169;-91
2024/04/17 11:07:25;;;;;;;;;;;;;;;;;;6379596;22;7071;-91
2024/04/17 11:09:55;;;;;;;;;;;;;;;;;;6380245;22;6961;-90
2024/04/17 11:12:24;;;;;;;;;;;;;;;;;;6422631;22;7087;-92
2024/04/17 11:15:02;;;;;;;;;;;;;;;;;;6381443;22;7098;-91
2024/04/17 11:17:28;;;;;;;;;;;;;;;;;;6414179;22;6977;-91
2024/04/17 11:19:57;;;;;;;;;;;;;;;;;;6471776;22;6967;-90
2024/04/17 11:22:35;;;;;;;;;;;;;;;;;;6473941;22;7177;-90
2024/04/17 11:25:13;;;;;;;;;;;;;;;;;;6473604;22;7177;-90
2024/04/17 11:27:54;;;;;;;;;;;;;;;;;;6472056;22;7080;-90
2024/04/17 11:34:31;;;;;;;;;;;;;;;;;;6508128;22;7130;-90
2024/04/17 11:37:33;;;;;;;;;;;;;;;;;;6429749;22;7986;-90
2024/04/17 11:43:59;;;;;;;;;;;;;;;;;;6386384;22;7120;-90
2024/04/17 11:47:28;;;;;;;;;;;;;;;;;;6390677;22;8201;-90
2024/04/17 11:50:41;;;;;;;;;;;;;;;;;;;;;
2024/04/17 11:53:49;;;;;;;;;;;;;;;;;;;;;
2024/04/17 11:57:29;;;;;;;;;;;;;;;;;;;;;
2024/04/17 12:00:51;;;;;;;;;;;;;;;;;;;;;
2024/04/17 12:04:28;;;;;;;;;;;;;;;;;;6360852;22;7184;-89
2024/04/17 12:15:48;;;;;;;;;;;;;;;;;;6406006;22;6924;-89
2024/04/17 12:19:14;;;;;;;;;;;;;;;;;;;;;
2024/04/17 12:33:59;;;;;;;;;;;;;;;;;;6365753;22;7761;-89
2024/04/17 13:23:15;;;;;;;;;;;;;;;;;;6458575;22;7249;-87
2024/04/17 13:27:14;;;;;;;;;;;;;;;;;;;;;
2024/04/17 14:03:22;;;;;;;;;;;;;;;;;;;;;
2024/04/17 14:07:27;;;;;;;;;;;;;;;;;;;;;
2024/04/17 14:18:14;;;;;;;;;;;;;;;;;;;;;
2024/04/17 14:21:49;;;;;;;;;;;;;;;;;;;;;
2024/04/17 14:28:53;;;;;;;;;;;;;;;;;;6030434;23;6977;-88
2024/04/17 14:35:55;;;;;;;;;;;;;;;;;;;;;
2024/04/17 14:39:22;;;;;;;;;;;;;;;;;;6255423;22;7223;-87
2024/04/17 14:42:53;;;;;;;;;;;;;;;;;;;;;
2024/04/17 14:45:50;;;;;;;;;;;;;;;;;;;;;
2024/04/17 14:53:32;;;;;;;;;;;;;;;;;;;;;
2024/04/17 14:57:14;;;;;;;;;;;;;;;;;;6169263;23;7273;-87
2024/04/17 15:04:37;;;;;;;;;;;;;;;;;;6112382;23;7164;-87
2024/04/17 15:12:27;;;;;;;;;;;;;;;;;;6263883;22;7040;-87
2024/04/17 15:16:16;;;;;;;;;;;;;;;;;;;;;
2024/04/17 15:23:10;;;;;;;;;;;;;;;;;;6262651;22;7183;-86
2024/04/17 15:30:36;;;;;;;;;;;;;;;;;;6147974;23;7167;-87
2024/04/17 15:33:59;;;;;;;;;;;;;;;;;;;;;
2024/04/17 15:37:05;;;;;;;;;;;;;;;;;;6168399;23;7188;-86
2024/04/17 15:40:10;;;;;;;;;;;;;;;;;;6308053;22;6967;-86
2024/04/17 15:43:18;;;;;;;;;;;;;;;;;;;;;
2024/04/17 15:46:30;;;;;;;;;;;;;;;;;;;;;
2024/04/17 15:50:39;;;;;;;;;;;;;;;;;;6441167;22;7253;-87
2024/04/17 16:10:12;;;;;;;;;;;;;;;;;;6438816;22;7017;-86
2024/04/17 16:13:34;;;;;;;;;;;;;;;;;;6400162;22;6944;-87
2024/04/17 16:16:50;;;;;;;;;;;;;;;;;;;;;
2024/04/17 16:20:05;;;;;;;;;;;;;;;;;;;;;
2024/04/17 16:23:32;;;;;;;;;;;;;;;;;;6456001;22;7765;-87
2024/04/17 16:27:27;;;;;;;;;;;;;;;;;;6464399;22;6953;-87
2024/04/17 16:29:49;;;;;;;;;;;;;;;;;;6463775;22;6968;-86
2024/04/17 16:32:46;;;;;;;;;;;;;;;;;;6422070;22;7372;-91
2024/04/17 16:35:26;;;;;;;;;;;;;;;;;;6389690;22;6987;-89
2024/04/17 16:37:52;;;;;;;;;;;;;;;;;;6427574;22;7085;-89
2024/04/17 16:40:26;;;;;;;;;;;;;;;;;;6427617;22;6968;-89
2024/04/17 16:43:03;;;;;;;;;;;;;;;;;;6468733;22;7010;-90
2024/04/17 16:45:31;;;;;;;;;;;;;;;;;;6427916;22;7095;-89
2024/04/17 16:48:02;;;;;;;;;;;;;;;;;;6427330;22;6963;-89
2024/04/17 16:50:54;;;;;;;;;;;;;;;;;;6426605;22;7087;-89
2024/04/17 16:53:24;;;;;;;;;;;;;;;;;;6428847;22;7042;-89
2024/04/17 16:55:55;;;;;;;;;;;;;;;;;;6469906;22;7160;-89
2024/04/17 16:58:33;;;;;;;;;;;;;;;;;;6469066;22;7111;-90
2024/04/17 17:01:18;;;;;;;;;;;;;;;;;;6468734;22;7022;-89
2024/04/17 17:04:00;;;;;;;;;;;;;;;;;;;;;
2024/04/17 17:07:09;;;;;;;;;;;;;;;;;;;;;
2024/04/17 17:09:40;;;;;;;;;;;;;;;;;;6394732;22;7036;-90
2024/04/17 17:12:15;;;;;;;;;;;;;;;;;;6427133;22;7073;-89
2024/04/17 17:14:49;;;;;;;;;;;;;;;;;;6429217;22;6989;-89
2024/04/17 17:17:22;;;;;;;;;;;;;;;;;;6429413;22;8187;-89
2024/04/17 17:20:11;;;;;;;;;;;;;;;;;;6468647;22;7002;-90
2024/04/17 17:22:44;;;;;;;;;;;;;;;;;;6427404;22;6984;-89
2024/04/17 17:25:17;;;;;;;;;;;;;;;;;;6428239;22;6962;-90
2024/04/17 17:27:46;;;;;;;;;;;;;;;;;;6468970;22;7007;-89
2024/04/17 17:30:23;;;;;;;;;;;;;;;;;;6430023;22;7022;-89
2024/04/17 17:33:05;;;;;;;;;;;;;;;;;;6469266;22;7110;-90
2024/04/17 17:35:54;;;;;;;;;;;;;;;;;;6427659;22;7592;-89
2024/04/17 17:38:23;;;;;;;;;;;;;;;;;;6382719;22;7138;-88
2024/04/17 17:41:22;;;;;;;;;;;;;;;;;;;;;
2024/04/17 17:44:20;;;;;;;;;;;;;;;;;;6469137;22;6972;-90
2024/04/17 17:46:55;;;;;;;;;;;;;;;;;;6426501;22;7009;-90
2024/04/17 17:49:23;;;;;;;;;;;;;;;;;;6427211;22;6969;-89
2024/04/17 17:51:54;;;;;;;;;;;;;;;;;;6469156;22;6969;-89
2024/04/17 17:54:20;;;;;;;;;;;;;;;;;;6426623;22;7127;-89
2024/04/17 17:56:46;;;;;;;;;;;;;;;;;;6425888;22;7109;-89
2024/04/17 17:59:14;;;;;;;;;;;;;;;;;;6468320;22;7925;-89
2024/04/17 18:01:54;;;;;;;;;;;;;;;;;;;;;
2024/04/17 18:04:25;;;;;;;;;;;;;;;;;;6468494;22;7122;-90
2024/04/17 18:07:00;;;;;;;;;;;;;;;;;;6427483;22;6998;-88
2024/04/17 18:09:29;;;;;;;;;;;;;;;;;;6468966;22;7083;-88
2024/04/17 18:11:57;;;;;;;;;;;;;;;;;;6426485;22;7066;-89
2024/04/17 18:14:33;;;;;;;;;;;;;;;;;;6468786;22;7015;-89
2024/04/17 18:17:14;;;;;;;;;;;;;;;;;;;;;
2024/04/17 18:19:58;;;;;;;;;;;;;;;;;;6470653;22;6955;-89
2024/04/17 18:22:29;;;;;;;;;;;;;;;;;;6427266;22;7148;-89
2024/04/17 18:25:11;;;;;;;;;;;;;;;;;;6426949;22;7086;-91
2024/04/17 18:27:50;;;;;;;;;;;;;;;;;;6387072;22;7107;-88
2024/04/17 18:30:46;;;;;;;;;;;;;;;;;;;;;
2024/04/17 18:33:26;;;;;;;;;;;;;;;;;;6470776;22;6955;-90
2024/04/17 18:36:35;;;;;;;;;;;;;;;;;;6430340;22;7065;-89
2024/04/17 18:50:39;;;;;;;;;;;;;;;;;;6471309;22;7729;-86
2024/04/17 18:54:13;;;;;;;;;;;;;;;;;;;;;
2024/04/17 18:56:51;;;;;;;;;;;;;;;;;;6301710;22;6978;-86
2024/04/17 18:59:26;;;;;;;;;;;;;;;;;;6386172;22;7291;-86
2024/04/17 19:02:07;;;;;;;;;;;;;;;;;;6428118;22;7010;-87
2024/04/17 19:04:45;;;;;;;;;;;;;;;;;;6387904;22;7107;-86
2024/04/17 19:10:54;;;;;;;;;;;;;;;;;;;;;
2024/04/17 19:13:32;;;;;;;;;;;;;;;;;;6427165;22;7108;-85
2024/04/17 19:16:17;;;;;;;;;;;;;;;;;;6388433;22;7011;-85
2024/04/17 19:18:48;;;;;;;;;;;;;;;;;;6393675;22;7063;-85
2024/04/17 19:21:16;;;;;;;;;;;;;;;;;;6473755;22;6957;-85
2024/04/17 19:23:46;;;;;;;;;;;;;;;;;;6469946;22;7075;-84
2024/04/17 19:26:25;;;;;;;;;;;;;;;;;;6515765;22;7114;-85
2024/04/17 19:29:14;;;;;;;;;;;;;;;;;;6469185;22;6939;-85
2024/04/17 19:31:39;;;;;;;;;;;;;;;;;;6474587;22;7064;-84
2024/04/17 19:34:12;;;;;;;;;;;;;;;;;;6451166;22;7296;-85
2024/04/17 19:36:44;;;;;;;;;;;;;;;;;;6461068;22;6957;-85
2024/04/17 19:39:15;;;;;;;;;;;;;;;;;;6482021;22;7245;-85
2024/04/17 19:41:48;;;;;;;;;;;;;;;;;;6462711;22;7216;-84
2024/04/17 19:44:24;;;;;;;;;;;;;;;;;;6484098;22;7088;-84
2024/04/17 19:46:53;;;;;;;;;;;;;;;;;;6512649;22;7158;-85
2024/04/17 19:49:24;;;;;;;;;;;;;;;;;;6512768;22;7952;-84
2024/04/17 19:51:49;;;;;;;;;;;;;;;;;;6468456;22;7095;-84
2024/04/17 19:54:15;;;;;;;;;;;;;;;;;;6449861;22;7443;-84
2024/04/17 19:56:41;;;;;;;;;;;;;;;;;;6469379;22;6949;-84
2024/04/17 19:59:10;;;;;;;;;;;;;;;;;;6443840;22;7198;-84
2024/04/17 20:01:38;;;;;;;;;;;;;;;;;;6436187;22;7083;-84
2024/04/17 20:04:11;;;;;;;;;;;;;;;;;;6478251;22;7067;-84
2024/04/17 20:06:37;;;;;;;;;;;;;;;;;;6469546;22;7086;-84
2024/04/17 20:09:06;;;;;;;;;;;;;;;;;;6440972;22;7065;-84
2024/04/17 20:11:34;;;;;;;;;;;;;;;;;;6469003;22;6973;-84
2024/04/17 20:14:00;;;;;;;;;;;;;;;;;;6459786;22;7071;-84
2024/04/17 20:16:25;;;;;;;;;;;;;;;;;;6477559;22;7201;-85
2024/04/17 20:18:51;;;;;;;;;;;;;;;;;;6468764;22;7028;-84
2024/04/17 20:21:20;;;;;;;;;;;;;;;;;;6472040;22;7178;-85
2024/04/17 20:27:36;;;;;;;;;;;;;;;;;;6503433;22;6915;-84
2024/04/17 20:30:04;;;;;;;;;;;;;;;;;;6512128;21;7001;-84
2024/04/17 20:32:30;;;;;;;;;;;;;;;;;;6468706;22;6953;-84
2024/04/17 20:35:01;;;;;;;;;;;;;;;;;;6467958;22;6951;-84
2024/04/17 20:37:35;;;;;;;;;;;;;;;;;;6449360;22;7104;-84
2024/04/17 20:40:09;;;;;;;;;;;;;;;;;;6449301;22;7302;-84
2024/04/17 20:42:34;;;;;;;;;;;;;;;;;;6469226;22;6967;-84
2024/04/17 20:45:00;;;;;;;;;;;;;;;;;;6481031;22;7127;-85
2024/04/17 20:47:46;;;;;;;;;;;;;;;;;;;;;
2024/04/17 20:50:35;;;;;;;;;;;;;;;;;;6489708;22;7007;-84
2024/04/17 20:53:04;;;;;;;;;;;;;;;;;;6435994;22;7002;-84
2024/04/17 20:55:32;;;;;;;;;;;;;;;;;;6468746;22;7107;-84
2024/04/17 20:58:01;;;;;;;;;;;;;;;;;;6458600;22;8006;-85
2024/04/17 21:00:27;;;;;;;;;;;;;;;;;;6447823;22;6963;-84
2024/04/17 21:02:52;;;;;;;;;;;;;;;;;;6507593;22;7116;-84
2024/04/17 21:05:20;;;;;;;;;;;;;;;;;;6474674;22;8112;-84
2024/04/17 21:07:49;;;;;;;;;;;;;;;;;;6468269;22;7091;-84
2024/04/17 21:10:15;;;;;;;;;;;;;;;;;;6516144;22;7129;-84
2024/04/17 21:12:48;;;;;;;;;;;;;;;;;;6517936;22;6983;-86
2024/04/17 21:15:16;;;;;;;;;;;;;;;;;;6467971;22;7480;-84
2024/04/17 21:17:42;;;;;;;;;;;;;;;;;;6507723;22;7138;-84
2024/04/17 21:20:09;;;;;;;;;;;;;;;;;;6470584;22;6946;-85
2024/04/17 21:22:37;;;;;;;;;;;;;;;;;;6476531;22;7016;-84
2024/04/17 21:25:08;;;;;;;;;;;;;;;;;;6519635;22;6947;-85
2024/04/17 21:27:34;;;;;;;;;;;;;;;;;;6477487;22;7072;-84
2024/04/17 21:30:06;;;;;;;;;;;;;;;;;;6519000;22;6947;-85
2024/04/17 21:32:37;;;;;;;;;;;;;;;;;;6519658;22;7020;-84
2024/04/17 21:35:08;;;;;;;;;;;;;;;;;;6519521;22;7030;-84
2024/04/17 21:37:38;;;;;;;;;;;;;;;;;;6478046;22;7074;-85
2024/04/17 21:40:07;;;;;;;;;;;;;;;;;;6478032;22;7201;-85
2024/04/17 21:42:37;;;;;;;;;;;;;;;;;;6519399;22;7101;-84